Thunder radar more information blitzortung!


Radar de pluja more information rain snow radar


Visita la nostra xarxa de llocs de meteo:

Template documentation
and downloads

And another site



No particular awareness of the weather is required.    There are no Weather-warnings

Pagina Historial Weather Underground text

Diari Resum Octubre 26, 2017 Unitats:  Imperial    Mètric   Tant
« Previous Dia
SegĂźent Dia »
Diari Setmana Mensual Anual Personalitzada
  Maxima: Minima: Media:
Temperatura: 73.9 °F 52.9 °F 64.9 °F
Punt de rosada: 62.8 °F 50 °F 58.6 °F
Humitat: 93 % 66 % 81 %
Wind Speed: 9.2 mph 0 mph 2.2 mph
RĂ fegues de vent: 9.2 mph - -
Vent:- - SSE
Pression baro: 30.4 in 30.3 in -
Precipitacions: 0 in    
Historical Graphs
 
 
Dades de taula per Octubre 26, 2017
Temps Temperatura Punt de rosada Pression baro Vent Wind Speed RĂ fegues de vent Humitat Rainfall Rate (Hourly)
00:03 59.5 °F 54.3 °F 30.3 in Calm     83 % 0 in
00:08 59.4 °F 54.1 °F 30.3 in Calm     83 % 0 in
00:13 59.5 °F 54.7 °F 30.3 in Calm     84 % 0 in
00:18 59.4 °F 54.5 °F 30.3 in Calm     84 % 0 in
00:23 59.4 °F 54.5 °F 30.3 in Calm     84 % 0 in
00:28 59.4 °F 54.5 °F 30.3 in Calm     84 % 0 in
02:40 53.4 °F 50.5 °F 30.3 in Calm     90 % 0 in
02:50 53.4 °F 50.5 °F 30.3 in NNW 1 mph 1 mph 90 % 0 in
03:00 53.1 °F 50.2 °F 30.3 in Calm   1 mph 90 % 0 in
03:10 53.1 °F 50.2 °F 30.3 in Calm     90 % 0 in
03:20 53.1 °F 50.2 °F 30.3 in Calm     90 % 0 in
03:30 53.2 °F 50.4 °F 30.3 in Calm     90 % 0 in
03:40 53.4 °F 50.9 °F 30.3 in Calm     91 % 0 in
03:50 53.6 °F 51.1 °F 30.3 in Calm     91 % 0 in
04:00 53.6 °F 51.1 °F 30.3 in Calm     91 % 0 in
04:10 53.1 °F 50.2 °F 30.3 in Calm     90 % 0 in
04:20 52.9 °F 50 °F 30.3 in Calm   1 mph 90 % 0 in
04:30 53.1 °F 50.5 °F 30.4 in Calm   1 mph 91 % 0 in
04:40 53.2 °F 50.7 °F 30.4 in Calm     91 % 0 in
04:50 53.8 °F 51.3 °F 30.4 in Calm     91 % 0 in
05:00 53.8 °F 51.3 °F 30.4 in Calm   1 mph 91 % 0 in
05:10 54.3 °F 52 °F 30.4 in Calm     92 % 0 in
10:11 54.9 °F 52.5 °F 30.4 in Calm     92 % 0 in
10:16 55 °F 52.9 °F 30.4 in WNW 1.2 mph   92 % 0 in
10:21 55.2 °F 52.9 °F 30.4 in Calm     92 % 0 in
10:26 55.4 °F 53.1 °F 30.4 in Calm     92 % 0 in
10:31 55.8 °F 53.8 °F 30.4 in Calm     93 % 0 in
10:36 55.9 °F 54 °F 30.4 in Calm     93 % 0 in
10:41 56.1 °F 54.1 °F 30.4 in ENE 1.2 mph 1.2 mph 93 % 0 in
10:46 56.1 °F 54.1 °F 30.4 in SE 2.2 mph   93 % 0 in
10:51 56.3 °F 54.3 °F 30.4 in ESE 1.2 mph 1.2 mph 93 % 0 in
10:56 56.5 °F 54.5 °F 30.4 in East 1.2 mph   93 % 0 in
11:01 56.7 °F 54.3 °F 30.4 in East 2.4 mph 2.4 mph 92 % 0 in
11:06 56.5 °F 54.1 °F 30.4 in NE 2.3 mph 2.3 mph 92 % 0 in
11:11 56.7 °F 54.3 °F 30.4 in ENE 3.5 mph 3.5 mph 92 % 0 in
11:16 56.8 °F 54.5 °F 30.4 in NE 2.3 mph 2.3 mph 92 % 0 in
11:21 57.2 °F 54.9 °F 30.4 in NE 2.4 mph 2.4 mph 92 % 0 in
11:26 57.7 °F 55.4 °F 30.4 in NW 1.2 mph 1.6 mph 92 % 0 in
11:31 57.9 °F 55.6 °F 30.4 in WNW 1.6 mph 1.6 mph 92 % 0 in
11:36 58.3 °F 55.9 °F 30.4 in North 2.4 mph 2.4 mph 92 % 0 in
11:46 59.2 °F 56.8 °F 30.4 in WSW 3.3 mph 3.3 mph 92 % 0 in
11:51 59.4 °F 57 °F 30.4 in NNW 1.6 mph 1.6 mph 92 % 0 in
11:56 59.9 °F 57.6 °F 30.4 in WNW 1.6 mph 1.6 mph 92 % 0 in
12:01 60.3 °F 57.9 °F 30.4 in WSW 2.9 mph 2.9 mph 92 % 0 in
12:06 60.4 °F 58.1 °F 30.4 in WNW 1.2 mph   92 % 0 in
12:11 60.6 °F 57.9 °F 30.4 in WSW 3.5 mph 3.5 mph 91 % 0 in
12:16 61.2 °F 58.5 °F 30.4 in SSE 2.3 mph   91 % 0 in
12:21 61.5 °F 58.8 °F 30.4 in WSW 3.5 mph 3.5 mph 91 % 0 in
12:26 61.9 °F 58.8 °F 30.4 in West 2.3 mph 2.3 mph 90 % 0 in
12:31 62.2 °F 59.4 °F 30.4 in WSW 2.3 mph 2.3 mph 90 % 0 in
12:36 63.5 °F 60.4 °F 30.4 in SW 2.6 mph 2.6 mph 90 % 0 in
12:41 64.2 °F 61 °F 30.3 in SSW 2.3 mph 2.3 mph 89 % 0 in
12:46 64.9 °F 61.3 °F 30.3 in SW 2.4 mph 2.4 mph 88 % 0 in
12:51 65.5 °F 61.5 °F 30.3 in WSW 2.4 mph 2.4 mph 87 % 0 in
12:56 65.5 °F 61.2 °F 30.3 in WSW 1.2 mph 1.4 mph 86 % 0 in
13:01 66 °F 61.3 °F 30.3 in NNE 1.6 mph 1.6 mph 85 % 0 in
13:06 66.2 °F 61.2 °F 30.3 in West 2.3 mph 2.3 mph 84 % 0 in
13:11 66.9 °F 61.5 °F 30.3 in NE 2.3 mph 2.3 mph 83 % 0 in
13:16 67.8 °F 62.1 °F 30.3 in SSW 3.5 mph 3.5 mph 82 % 0 in
13:21 68.2 °F 61.3 °F 30.3 in SW 2.4 mph 2.4 mph 79 % 0 in
13:26 68.4 °F 61.2 °F 30.3 in East 3.5 mph 3.5 mph 78 % 0 in
13:31 68.9 °F 61.9 °F 30.3 in ESE 2.4 mph 2.4 mph 78 % 0 in
13:36 69.3 °F 62.1 °F 30.3 in SSE 4.6 mph 4.6 mph 78 % 0 in
13:41 68.9 °F 61 °F 30.3 in ESE 2.9 mph 2.9 mph 76 % 0 in
13:46 69.3 °F 61.3 °F 30.3 in East 2.6 mph 2.6 mph 76 % 0 in
13:47 69.3 °F 61.3 °F 30.3 in ESE 2.4 mph 2.4 mph 76 % 0 in
13:52 69.3 °F 61 °F 30.3 in ESE 3.5 mph 3.5 mph 75 % 0 in
13:57 69.4 °F 60.8 °F 30.3 in ESE 3.5 mph 3.5 mph 74 % 0 in
14:02 69.8 °F 61.5 °F 30.3 in NNE 2.6 mph 2.6 mph 75 % 0 in
14:07 70 °F 61.7 °F 30.3 in ENE 3.5 mph 3.5 mph 75 % 0 in
14:12 70.3 °F 61.7 °F 30.3 in ENE 2.3 mph 2.3 mph 74 % 0 in
14:17 70.5 °F 61.3 °F 30.3 in ESE 3.3 mph 3.3 mph 73 % 0 in
14:22 70.5 °F 60.6 °F 30.3 in ESE 3.5 mph 3.5 mph 71 % 0 in
14:27 70.9 °F 61 °F 30.3 in ENE 3.5 mph 3.5 mph 71 % 0 in
14:32 71.2 °F 61.3 °F 30.3 in South 3.5 mph 3.5 mph 71 % 0 in
14:37 72 °F 62.1 °F 30.3 in SW 3.5 mph 3.5 mph 71 % 0 in
14:42 72.3 °F 62.4 °F 30.3 in SSE 3.3 mph 3.3 mph 71 % 0 in
14:47 72.7 °F 62.8 °F 30.3 in SW 3.5 mph 3.5 mph 71 % 0 in
14:52 72.5 °F 61.3 °F 30.3 in WSW 4.6 mph 4.6 mph 68 % 0 in
14:57 72.7 °F 61.9 °F 30.3 in ESE 4.3 mph 4.3 mph 69 % 0 in
15:02 72 °F 60.8 °F 30.3 in ESE 3.5 mph 3.5 mph 68 % 0 in
15:07 72.1 °F 61.3 °F 30.3 in ESE 2.6 mph 2.6 mph 69 % 0 in
15:12 72.1 °F 61.3 °F 30.3 in ESE 4.6 mph 4.6 mph 69 % 0 in
15:17 72.5 °F 61.7 °F 30.3 in East 5.8 mph 5.8 mph 69 % 0 in
15:22 72.5 °F 61.3 °F 30.3 in ESE 4.6 mph 4.6 mph 68 % 0 in
15:27 73.6 °F 62.4 °F 30.3 in SSE 2.4 mph 2.6 mph 68 % 0 in
15:32 73.2 °F 61.5 °F 30.3 in SE 2.9 mph 3.3 mph 67 % 0 in
15:37 73 °F 61.3 °F 30.3 in East 6.9 mph 6.9 mph 67 % 0 in
15:42 73.2 °F 62.1 °F 30.3 in ESE 4.6 mph 4.6 mph 68 % 0 in
15:47 73.4 °F 61.9 °F 30.3 in ENE 3.6 mph 3.6 mph 67 % 0 in
15:52 73.8 °F 61.7 °F 30.3 in ESE 3.5 mph 3.5 mph 66 % 0 in
15:57 73.8 °F 62.1 °F 30.3 in NNE 4.6 mph 4.6 mph 67 % 0 in
16:02 73.9 °F 61.9 °F 30.3 in ESE 2.6 mph 2.9 mph 66 % 0 in
16:07 73.8 °F 61.7 °F 30.3 in ESE 3.6 mph 4.5 mph 66 % 0 in
16:12 73.6 °F 61.5 °F 30.3 in East 5.8 mph 5.8 mph 66 % 0 in
16:17 73.4 °F 61.9 °F 30.3 in ESE 5.8 mph 5.8 mph 67 % 0 in
16:22 73.4 °F 61.9 °F 30.3 in East 4.6 mph 4.6 mph 67 % 0 in
16:32 73 °F 61.3 °F 30.3 in ESE 6 mph 6 mph 67 % 0 in
16:37 72.9 °F 61.3 °F 30.3 in ESE 5.8 mph 5.8 mph 67 % 0 in
16:42 72.9 °F 61.3 °F 30.3 in ESE 6.9 mph 6.9 mph 67 % 0 in
16:47 72.7 °F 61.5 °F 30.3 in ESE 5.8 mph 5.8 mph 68 % 0 in
16:52 72.5 °F 61.3 °F 30.3 in East 9.2 mph 9.2 mph 68 % 0 in
16:57 72.5 °F 61.3 °F 30.3 in East 7.4 mph 7.4 mph 68 % 0 in
17:02 72.3 °F 61.2 °F 30.3 in East 5.8 mph 5.8 mph 68 % 0 in
17:07 72.3 °F 61.5 °F 30.3 in ESE 5.8 mph 5.8 mph 69 % 0 in
17:12 72.1 °F 61.3 °F 30.3 in SE 5.9 mph 5.9 mph 69 % 0 in
17:17 72.1 °F 61.3 °F 30.3 in East 4.6 mph 4.6 mph 69 % 0 in
17:22 72 °F 61.2 °F 30.3 in ESE 4.6 mph 4.6 mph 69 % 0 in
17:27 72 °F 61.5 °F 30.3 in ESE 3.6 mph 3.6 mph 70 % 0 in
17:32 72 °F 61.5 °F 30.3 in East 5.8 mph 5.8 mph 70 % 0 in
17:37 72 °F 61.5 °F 30.3 in ENE 3.5 mph 3.5 mph 70 % 0 in
17:42 72 °F 61.5 °F 30.3 in ESE 4.6 mph 4.6 mph 70 % 0 in
17:47 71.8 °F 61.9 °F 30.3 in ESE 4.6 mph 4.6 mph 71 % 0 in
17:52 71.6 °F 61.7 °F 30.3 in ESE 3.5 mph 3.5 mph 71 % 0 in
17:57 71.6 °F 61.7 °F 30.3 in ESE 4.6 mph 4.6 mph 71 % 0 in
18:02 71.4 °F 61.9 °F 30.3 in ESE 2.3 mph 2.6 mph 72 % 0 in
18:07 71.1 °F 62.1 °F 30.3 in ESE 4 mph 4 mph 73 % 0 in
18:12 70.9 °F 61.9 °F 30.3 in ESE 3.5 mph 3.5 mph 73 % 0 in
18:17 70.5 °F 61.3 °F 30.3 in East 4.6 mph 4.6 mph 73 % 0 in
18:22 70.3 °F 61.7 °F 30.3 in ESE 2.9 mph 2.9 mph 74 % 0 in
18:27 70 °F 61.3 °F 30.3 in SE 3.5 mph 3.5 mph 74 % 0 in
18:32 69.8 °F 61.2 °F 30.3 in ESE 3.5 mph 3.5 mph 74 % 0 in
18:37 69.4 °F 61.2 °F 30.3 in ENE 3.5 mph 3.5 mph 75 % 0 in
18:42 69.3 °F 61 °F 30.3 in ESE 3.5 mph 3.5 mph 75 % 0 in
18:47 69.1 °F 61.2 °F 30.3 in ENE 2.3 mph 2.3 mph 76 % 0 in
18:52 68.9 °F 61 °F 30.3 in NE 1.2 mph   76 % 0 in
18:57 68.7 °F 60.8 °F 30.3 in Calm     76 % 0 in
19:02 68.5 °F 61 °F 30.3 in Calm     77 % 0 in
19:07 68.4 °F 61 °F 30.3 in Calm     77 % 0 in
19:12 68.2 °F 60.6 °F 30.3 in Calm     77 % 0 in
19:17 67.8 °F 60.3 °F 30.3 in Calm     77 % 0 in
19:22 67.6 °F 60.4 °F 30.3 in Calm     78 % 0 in
19:27 67.5 °F 60.4 °F 30.3 in WNW 2 mph   78 % 0 in
19:32 67.3 °F 60.3 °F 30.3 in West 1.2 mph   78 % 0 in
19:37 67.1 °F 60.1 °F 30.3 in WSW 2.3 mph   78 % 0 in
19:42 67.1 °F 60.1 °F 30.3 in West 3.5 mph 3.5 mph 78 % 0 in
19:47 66.9 °F 59.7 °F 30.3 in West 2 mph 2 mph 78 % 0 in
19:52 66.9 °F 59.7 °F 30.3 in SW 1.4 mph 1.4 mph 78 % 0 in
19:57 66.7 °F 59.7 °F 30.3 in WSW 1.4 mph 1.4 mph 78 % 0 in
20:02 66.6 °F 59.7 °F 30.3 in WSW 2.3 mph   79 % 0 in
20:07 66.4 °F 59.7 °F 30.3 in WSW 1.6 mph 1.6 mph 79 % 0 in
20:12 66.2 °F 59.5 °F 30.3 in WSW 1.4 mph 1.4 mph 79 % 0 in
20:17 66.2 °F 59.5 °F 30.3 in WSW 1.2 mph   79 % 0 in
20:22 65.8 °F 59.5 °F 30.3 in Calm     80 % 0 in
20:27 65.7 °F 59.7 °F 30.3 in Calm     81 % 0 in
20:32 65.5 °F 59.5 °F 30.3 in Calm     81 % 0 in
20:37 65.3 °F 59.4 °F 30.3 in Calm     81 % 0 in
20:42 65.3 °F 59.4 °F 30.3 in Calm     81 % 0 in
20:47 65.1 °F 59.5 °F 30.3 in Calm     82 % 0 in
20:52 64.9 °F 59.4 °F 30.3 in Calm     82 % 0 in
20:57 64.8 °F 59.2 °F 30.4 in Calm     82 % 0 in
21:02 64.8 °F 59.2 °F 30.4 in Calm     82 % 0 in
21:07 64.6 °F 59 °F 30.4 in Calm     82 % 0 in
21:12 64.6 °F 59.4 °F 30.4 in Calm     83 % 0 in
21:17 64.4 °F 59.2 °F 30.4 in Calm     83 % 0 in
21:22 64.4 °F 59.2 °F 30.4 in Calm     83 % 0 in
21:27 64 °F 58.8 °F 30.4 in WSW 1.2 mph 1.2 mph 83 % 0 in
21:32 64 °F 58.8 °F 30.4 in Calm     83 % 0 in
21:37 63.7 °F 58.5 °F 30.4 in Calm     83 % 0 in
21:42 63.5 °F 58.6 °F 30.4 in Calm     84 % 0 in
21:47 63.1 °F 58.3 °F 30.4 in Calm     84 % 0 in
21:52 63.1 °F 58.3 °F 30.4 in WSW 1.4 mph 1.4 mph 84 % 0 in
21:57 62.8 °F 57.9 °F 30.4 in SW 2.3 mph 2.3 mph 84 % 0 in
22:02 62.6 °F 57.7 °F 30.4 in Calm     84 % 0 in
22:07 62.6 °F 57.9 °F 30.4 in Calm     85 % 0 in
22:12 62.8 °F 58.3 °F 30.4 in West 2.3 mph 2.3 mph 85 % 0 in
22:17 62.8 °F 58.3 °F 30.4 in West 2.4 mph   85 % 0 in
22:22 63 °F 58.5 °F 30.4 in WSW 2.3 mph 2.3 mph 85 % 0 in
22:27 63 °F 58.5 °F 30.4 in WSW 1.4 mph   85 % 0 in
22:32 63 °F 58.6 °F 30.4 in WSW 1.2 mph 1.2 mph 86 % 0 in
22:37 63 °F 58.6 °F 30.4 in West 2.3 mph 2.3 mph 86 % 0 in
22:42 63.1 °F 58.8 °F 30.4 in Calm     86 % 0 in
22:47 63 °F 58.6 °F 30.4 in WSW 2.3 mph 2.3 mph 86 % 0 in
22:52 63.1 °F 59.2 °F 30.4 in West 2.3 mph 2.3 mph 87 % 0 in
22:57 63 °F 59 °F 30.4 in Calm     87 % 0 in
23:02 63 °F 59 °F 30.4 in West 2 mph   87 % 0 in
23:07 63.1 °F 59.2 °F 30.4 in WSW 2.3 mph 2.3 mph 87 % 0 in
23:12 63 °F 59 °F 30.4 in WSW 2.3 mph 2.3 mph 87 % 0 in
23:17 63 °F 59 °F 30.4 in WSW 2.4 mph 2.4 mph 87 % 0 in
23:22 62.8 °F 58.8 °F 30.4 in SW 2 mph 2 mph 87 % 0 in
23:27 62.6 °F 58.6 °F 30.4 in WSW 1.6 mph 1.6 mph 87 % 0 in
23:32 62.6 °F 58.6 °F 30.4 in Calm     87 % 0 in
23:37 62.2 °F 58.6 °F 30.4 in Calm     88 % 0 in
23:42 62.1 °F 58.5 °F 30.4 in SW 2.3 mph 2.3 mph 88 % 0 in
23:47 62.1 °F 58.5 °F 30.4 in SW 2.3 mph 2.3 mph 88 % 0 in
23:50 58.5 °F 56.5 °F 30.3 in Calm     93 % 0 in
23:52 61.7 °F 58.1 °F 30.4 in SW 2.3 mph 2.3 mph 88 % 0 in
23:57 61.5 °F 57.9 °F 30.4 in SW 2.3 mph 2.3 mph 88 % 0 in
Meteo Sesrovires
Elogis d' Weather Underground - 3.5 mb

Guio original per  Jim McMurry - jmcmurry@mwt.net Adaptat per a la plantilla per  Wim van der Kuil - Leuven-Template.eu

Trobareu la nostra informacio del temps tambe a:

Weather Underground

AWEKAS